Time;durP1;ratioP1;P1;durP2;ratioP2;P2;SDS_P1;SDS_P2;PMS_P1;PMS_P2;Temp;Humidity;BMP_temperature;BMP_pressure;BME280_temperature;BME280_humidity;BME280_pressure;Samples;Min_cycle;Max_cycle;Signal;HPM_P1;HPM_P2
2022/01/02 00:01:22;;;;;;;20.47;13.23;;;;;;;;;;5057481;28;20226;-80
2022/01/02 00:03:51;;;;;;;23.90;13.47;;;;;;;;;;5056093;28;20245;-80
2022/01/02 00:06:24;;;;;;;23.47;13.10;;;;;;;;;;5058024;28;20242;-80
2022/01/02 00:08:54;;;;;;;16.63;11.90;;;;;;;;;;5056605;28;20663;-80
2022/01/02 00:11:25;;;;;;;16.37;10.90;;;;;;;;;;5057229;28;20229;-80
2022/01/02 00:13:56;;;;;;;15.87;10.50;;;;;;;;;;5056755;28;20261;-80
2022/01/02 00:16:23;;;;;;;16.37;9.87;;;;;;;;;;5056747;28;20285;-80
2022/01/02 00:19:03;;;;;;;13.27;9.70;;;;;;;;;;5056931;28;20259;-80
2022/01/02 00:21:32;;;;;;;15.97;10.67;;;;;;;;;;5057383;28;20229;-79
2022/01/02 00:24:03;;;;;;;14.70;9.43;;;;;;;;;;5056707;28;20605;-80
2022/01/02 00:26:37;;;;;;;18.67;10.30;;;;;;;;;;5058143;28;20233;-80
2022/01/02 00:29:05;;;;;;;13.17;9.67;;;;;;;;;;5056573;28;20244;-80
2022/01/02 00:31:32;;;;;;;15.47;9.23;;;;;;;;;;5057391;28;20233;-80
2022/01/02 00:33:59;;;;;;;11.97;9.77;;;;;;;;;;5054875;28;20242;-80
2022/01/02 00:36:26;;;;;;;13.13;9.53;;;;;;;;;;5056584;28;20213;-80
2022/01/02 00:38:55;;;;;;;14.67;9.83;;;;;;;;;;5056474;28;20245;-80
2022/01/02 00:41:24;;;;;;;14.50;10.17;;;;;;;;;;5056376;28;20232;-80
2022/01/02 00:43:56;;;;;;;14.97;9.30;;;;;;;;;;5055350;28;20236;-80
2022/01/02 00:46:23;;;;;;;17.80;9.20;;;;;;;;;;5055475;28;20209;-80
2022/01/02 00:48:53;;;;;;;14.90;9.87;;;;;;;;;;5055009;28;20245;-80
2022/01/02 00:51:28;;;;;;;15.43;9.87;;;;;;;;;;5055651;28;20232;-80
2022/01/02 00:53:58;;;;;;;14.20;10.40;;;;;;;;;;5054844;28;20573;-80
2022/01/02 00:56:28;;;;;;;16.23;11.27;;;;;;;;;;5055527;28;20676;-80
2022/01/02 00:58:59;;;;;;;18.73;11.73;;;;;;;;;;5058554;28;20256;-80
2022/01/02 01:01:29;;;;;;;17.13;11.70;;;;;;;;;;5056160;28;20236;-80
2022/01/02 01:03:57;;;;;;;16.27;12.17;;;;;;;;;;5056568;28;20246;-80
2022/01/02 01:06:25;;;;;;;16.43;10.80;;;;;;;;;;5056459;28;20232;-80
2022/01/02 01:08:56;;;;;;;15.80;10.77;;;;;;;;;;5056017;28;20267;-80
2022/01/02 01:11:25;;;;;;;18.63;11.90;;;;;;;;;;5056511;28;20709;-80
2022/01/02 01:13:53;;;;;;;20.77;12.43;;;;;;;;;;5055740;28;20823;-80
2022/01/02 01:16:20;;;;;;;21.87;12.67;;;;;;;;;;5055956;28;20670;-80
2022/01/02 01:18:48;;;;;;;19.00;12.63;;;;;;;;;;5055347;28;20230;-80
2022/01/02 01:21:15;;;;;;;22.33;13.77;;;;;;;;;;5056604;28;20232;-80
2022/01/02 01:23:42;;;;;;;18.77;12.53;;;;;;;;;;5055792;28;20237;-80
2022/01/02 01:26:11;;;;;;;19.07;11.90;;;;;;;;;;5056596;28;20209;-80
2022/01/02 01:28:39;;;;;;;19.93;12.30;;;;;;;;;;5055974;28;20239;-80
2022/01/02 01:31:06;;;;;;;18.40;12.43;;;;;;;;;;5056406;28;20279;-80
2022/01/02 01:33:33;;;;;;;15.77;10.93;;;;;;;;;;5054963;28;20241;-80
2022/01/02 01:36:00;;;;;;;15.83;10.77;;;;;;;;;;5056141;28;20214;-80
2022/01/02 01:38:27;;;;;;;17.90;10.73;;;;;;;;;;5055552;28;20245;-80
2022/01/02 01:40:58;;;;;;;18.27;11.13;;;;;;;;;;5055606;28;20237;-80
2022/01/02 01:43:36;;;;;;;13.73;10.20;;;;;;;;;;5055421;28;20239;-80
2022/01/02 01:46:05;;;;;;;21.50;10.33;;;;;;;;;;5055941;28;20216;-80
2022/01/02 01:48:32;;;;;;;16.60;10.37;;;;;;;;;;5055859;28;20287;-80
2022/01/02 01:50:59;;;;;;;14.10;9.67;;;;;;;;;;5055305;28;20711;-80
2022/01/02 01:53:26;;;;;;;15.20;9.90;;;;;;;;;;5054288;28;20647;-80
2022/01/02 01:55:55;;;;;;;18.20;10.33;;;;;;;;;;5055752;28;20213;-80
2022/01/02 01:58:22;;;;;;;14.33;10.53;;;;;;;;;;5055026;28;20262;-80
2022/01/02 02:00:49;;;;;;;17.63;10.40;;;;;;;;;;5055460;28;20260;-80
2022/01/02 02:03:17;;;;;;;16.73;10.07;;;;;;;;;;5060813;28;20252;-80
2022/01/02 02:05:44;;;;;;;12.30;10.33;;;;;;;;;;5055789;28;20217;-80
2022/01/02 02:08:11;;;;;;;11.77;8.27;;;;;;;;;;5067312;28;20239;-80
2022/01/02 02:10:41;;;;;;;17.67;9.53;;;;;;;;;;5063172;28;20201;-80
2022/01/02 02:13:08;;;;;;;13.13;9.07;;;;;;;;;;5054669;28;20240;-80
2022/01/02 02:15:35;;;;;;;14.77;9.83;;;;;;;;;;5061207;28;20236;-80
2022/01/02 02:18:02;;;;;;;11.87;8.93;;;;;;;;;;5063590;28;20272;-80
2022/01/02 02:20:32;;;;;;;15.60;10.00;;;;;;;;;;5054724;28;20216;-80
2022/01/02 02:23:00;;;;;;;14.73;10.37;;;;;;;;;;5051076;28;20216;-80
2022/01/02 02:25:28;;;;;;;17.10;10.30;;;;;;;;;;5052058;28;20213;-80
2022/01/02 02:27:56;;;;;;;11.87;8.87;;;;;;;;;;5051581;28;20217;-80
2022/01/02 02:30:24;;;;;;;13.83;9.80;;;;;;;;;;5051800;28;20212;-80
2022/01/02 02:32:51;;;;;;;11.83;9.50;;;;;;;;;;5051784;28;20665;-80
2022/01/02 02:35:18;;;;;;;15.30;9.77;;;;;;;;;;5052688;28;20266;-80
2022/01/02 02:37:47;;;;;;;18.67;10.40;;;;;;;;;;5053079;28;20209;-80
2022/01/02 02:40:17;;;;;;;18.50;10.17;;;;;;;;;;5055435;28;20213;-80
2022/01/02 02:42:48;;;;;;;16.03;9.87;;;;;;;;;;5054301;28;20230;-80
2022/01/02 02:50:57;;;;;;;12.10;8.83;;;;;;;;;;5055035;28;20243;-80
2022/01/02 02:53:25;;;;;;;12.73;8.37;;;;;;;;;;5054613;28;20237;-79
2022/01/02 02:55:56;;;;;;;15.03;9.03;;;;;;;;;;5055117;28;20210;-79
2022/01/02 02:58:41;;;;;;;13.70;8.50;;;;;;;;;;5054700;28;20237;-80
2022/01/02 03:01:08;;;;;;;15.27;9.73;;;;;;;;;;5054817;28;20233;-80
2022/01/02 03:03:35;;;;;;;11.87;9.10;;;;;;;;;;5054386;28;20338;-80
2022/01/02 03:06:02;;;;;;;13.33;9.10;;;;;;;;;;5054447;28;20716;-80
2022/01/02 03:08:32;;;;;;;16.60;9.67;;;;;;;;;;5054132;28;20238;-80
2022/01/02 03:10:59;;;;;;;14.27;9.50;;;;;;;;;;5058044;28;20232;-80
2022/01/02 03:13:26;;;;;;;15.93;11.43;;;;;;;;;;5058066;28;20232;-80
2022/01/02 03:15:53;;;;;;;16.43;10.23;;;;;;;;;;5058598;28;20216;-80
2022/01/02 03:18:21;;;;;;;14.37;10.53;;;;;;;;;;5057936;28;20230;-80
2022/01/02 03:20:48;;;;;;;12.53;10.33;;;;;;;;;;5058005;28;20228;-80
2022/01/02 03:23:15;;;;;;;18.30;10.60;;;;;;;;;;5057635;28;20234;-80
2022/01/02 03:25:43;;;;;;;16.43;10.87;;;;;;;;;;5058683;28;20263;-79
2022/01/02 03:28:10;;;;;;;14.17;10.47;;;;;;;;;;5058317;28;20230;-80
2022/01/02 03:30:37;;;;;;;17.17;10.23;;;;;;;;;;5057550;28;20215;-80
2022/01/02 03:33:04;;;;;;;21.73;10.93;;;;;;;;;;5057874;28;20236;-80
2022/01/02 03:35:31;;;;;;;16.17;10.30;;;;;;;;;;5057958;28;20216;-80
2022/01/02 03:37:58;;;;;;;16.73;9.60;;;;;;;;;;5057316;28;20250;-80
2022/01/02 03:40:25;;;;;;;14.47;9.77;;;;;;;;;;5052612;28;20203;-80
2022/01/02 03:42:54;;;;;;;14.63;9.87;;;;;;;;;;5052418;28;20224;-80
2022/01/02 03:45:21;;;;;;;13.97;9.87;;;;;;;;;;5043552;28;20220;-79
2022/01/02 03:47:48;;;;;;;17.27;10.53;;;;;;;;;;5049451;28;20610;-80
2022/01/02 03:50:15;;;;;;;21.57;10.37;;;;;;;;;;5057529;28;20213;-81
2022/01/02 03:52:42;;;;;;;15.87;10.67;;;;;;;;;;5043610;28;20792;-80
2022/01/02 03:55:10;;;;;;;16.80;10.23;;;;;;;;;;5049294;28;20558;-81
2022/01/02 03:57:37;;;;;;;17.20;11.97;;;;;;;;;;5059618;28;20209;-81
2022/01/02 04:00:07;;;;;;;17.27;11.50;;;;;;;;;;5060131;28;20222;-80
2022/01/02 04:02:37;;;;;;;17.43;11.10;;;;;;;;;;5060094;28;20685;-80
2022/01/02 04:05:05;;;;;;;17.30;10.73;;;;;;;;;;5060554;28;20289;-81
2022/01/02 04:07:32;;;;;;;18.40;10.70;;;;;;;;;;5060916;28;20258;-80
2022/01/02 04:10:01;;;;;;;21.33;11.00;;;;;;;;;;5055258;28;20234;-80
2022/01/02 04:12:28;;;;;;;15.20;9.93;;;;;;;;;;5049470;28;20311;-80
2022/01/02 04:14:55;;;;;;;18.27;10.53;;;;;;;;;;5043876;28;20249;-81
2022/01/02 04:17:24;;;;;;;17.67;10.80;;;;;;;;;;5039955;28;20210;-80
2022/01/02 04:19:51;;;;;;;21.37;13.97;;;;;;;;;;5040052;28;20268;-80
2022/01/02 04:22:18;;;;;;;14.93;10.73;;;;;;;;;;5039816;28;20240;-81
2022/01/02 04:24:45;;;;;;;16.10;10.97;;;;;;;;;;5055993;28;20599;-81
2022/01/02 04:27:12;;;;;;;17.57;11.17;;;;;;;;;;5063414;28;20218;-82
2022/01/02 04:29:39;;;;;;;13.33;10.57;;;;;;;;;;5059173;28;20238;-80
2022/01/02 04:32:07;;;;;;;19.80;11.53;;;;;;;;;;5059395;28;20250;-81
2022/01/02 04:34:35;;;;;;;17.13;10.67;;;;;;;;;;5059771;28;20678;-81
2022/01/02 04:37:04;;;;;;;17.87;11.40;;;;;;;;;;5059225;28;20205;-81
2022/01/02 04:39:31;;;;;;;18.27;10.60;;;;;;;;;;5058472;28;20702;-81
2022/01/02 04:41:58;;;;;;;15.97;10.53;;;;;;;;;;5058885;28;20254;-81
2022/01/02 04:44:25;;;;;;;16.93;11.03;;;;;;;;;;5059108;28;20237;-81
2022/01/02 04:46:52;;;;;;;19.73;11.30;;;;;;;;;;5059849;28;20220;-81
2022/01/02 04:49:19;;;;;;;15.63;10.27;;;;;;;;;;5060024;28;20234;-81
2022/01/02 04:51:48;;;;;;;15.37;9.80;;;;;;;;;;5059285;28;20246;-81
2022/01/02 04:54:15;;;;;;;14.10;10.40;;;;;;;;;;5058494;28;20722;-81
2022/01/02 04:56:42;;;;;;;16.07;10.43;;;;;;;;;;5059484;28;20205;-81
2022/01/02 04:59:09;;;;;;;18.47;10.53;;;;;;;;;;5059008;28;20244;-80
2022/01/02 05:01:37;;;;;;;16.17;10.33;;;;;;;;;;5059530;28;20230;-80
2022/01/02 05:04:04;;;;;;;15.47;11.07;;;;;;;;;;5059221;28;20233;-80
2022/01/02 05:06:31;;;;;;;13.90;9.57;;;;;;;;;;5059768;28;20210;-80
2022/01/02 05:08:59;;;;;;;15.20;10.40;;;;;;;;;;5059320;28;20238;-81
2022/01/02 05:11:26;;;;;;;21.83;10.77;;;;;;;;;;5059257;28;20235;-81
2022/01/02 05:13:53;;;;;;;13.37;10.57;;;;;;;;;;5058353;28;20234;-81
2022/01/02 05:16:20;;;;;;;17.10;10.47;;;;;;;;;;5059157;28;20209;-80
2022/01/02 05:18:47;;;;;;;16.43;10.60;;;;;;;;;;5058453;28;20292;-81
2022/01/02 05:21:14;;;;;;;17.80;10.83;;;;;;;;;;5059259;28;20226;-81
2022/01/02 05:23:42;;;;;;;15.70;10.40;;;;;;;;;;5058640;28;20246;-81
2022/01/02 05:26:10;;;;;;;17.23;10.60;;;;;;;;;;5058964;28;20204;-80
2022/01/02 05:28:37;;;;;;;19.20;10.73;;;;;;;;;;5058387;28;20246;-80
2022/01/02 05:31:04;;;;;;;14.30;10.47;;;;;;;;;;5059728;28;20244;-82
2022/01/02 05:33:32;;;;;;;16.00;10.93;;;;;;;;;;5057622;28;20821;-80
2022/01/02 05:35:59;;;;;;;14.90;10.37;;;;;;;;;;5059235;28;20211;-81
2022/01/02 05:38:26;;;;;;;18.03;10.67;;;;;;;;;;5058397;28;20239;-80
2022/01/02 05:40:53;;;;;;;14.17;10.83;;;;;;;;;;5058554;28;20237;-81
2022/01/02 05:43:21;;;;;;;15.43;10.67;;;;;;;;;;5058841;28;20238;-82
2022/01/02 05:45:48;;;;;;;15.67;10.87;;;;;;;;;;5058341;28;20206;-81
2022/01/02 05:48:15;;;;;;;14.23;10.93;;;;;;;;;;5058651;28;20232;-81
2022/01/02 05:50:42;;;;;;;15.60;10.57;;;;;;;;;;5058812;28;20265;-81
2022/01/02 05:53:09;;;;;;;20.80;11.93;;;;;;;;;;5058274;28;20236;-81
2022/01/02 05:55:37;;;;;;;17.27;12.10;;;;;;;;;;5059014;28;20219;-81
2022/01/02 05:58:04;;;;;;;17.87;12.47;;;;;;;;;;5059106;28;20259;-80
2022/01/02 06:00:33;;;;;;;23.47;11.63;;;;;;;;;;5059173;28;20213;-80
2022/01/02 06:03:00;;;;;;;19.03;11.70;;;;;;;;;;5057858;28;20247;-80
2022/01/02 06:05:27;;;;;;;17.87;11.57;;;;;;;;;;5058653;28;20250;-81
2022/01/02 06:07:54;;;;;;;15.00;11.17;;;;;;;;;;5057386;28;20216;-80
2022/01/02 06:10:21;;;;;;;16.60;10.70;;;;;;;;;;5058198;28;20233;-81
2022/01/02 06:12:48;;;;;;;15.87;11.47;;;;;;;;;;5058598;28;20229;-81
2022/01/02 06:15:15;;;;;;;15.40;11.70;;;;;;;;;;5060192;28;20213;-81
2022/01/02 06:17:44;;;;;;;22.17;11.83;;;;;;;;;;5057654;28;20212;-81
2022/01/02 06:20:11;;;;;;;25.43;11.70;;;;;;;;;;5058201;28;20206;-80
2022/01/02 06:22:38;;;;;;;27.00;12.03;;;;;;;;;;5057670;28;20235;-81
2022/01/02 06:25:05;;;;;;;16.23;11.53;;;;;;;;;;5057361;28;20260;-81
2022/01/02 06:27:32;;;;;;;19.50;11.47;;;;;;;;;;5058223;28;20228;-81
2022/01/02 06:29:59;;;;;;;23.60;12.83;;;;;;;;;;5057446;28;20236;-81
2022/01/02 06:32:26;;;;;;;24.43;11.90;;;;;;;;;;5055487;28;20617;-81
2022/01/02 06:34:55;;;;;;;21.53;12.07;;;;;;;;;;5055511;28;20247;-81
2022/01/02 06:37:22;;;;;;;20.30;11.83;;;;;;;;;;5056036;28;20244;-82
2022/01/02 06:39:49;;;;;;;20.03;12.00;;;;;;;;;;5057096;28;20239;-81
2022/01/02 06:42:16;;;;;;;20.53;11.07;;;;;;;;;;5057589;28;20245;-81
2022/01/02 06:44:43;;;;;;;17.13;11.70;;;;;;;;;;5060085;28;20237;-81
2022/01/02 06:47:10;;;;;;;16.23;11.80;;;;;;;;;;5061993;28;20202;-80
2022/01/02 06:49:38;;;;;;;16.00;10.43;;;;;;;;;;5061469;28;20255;-81
2022/01/02 06:52:06;;;;;;;17.10;11.53;;;;;;;;;;5062615;28;20239;-81
2022/01/02 06:54:33;;;;;;;19.70;10.67;;;;;;;;;;5061158;28;21006;-81
2022/01/02 06:57:01;;;;;;;18.37;11.30;;;;;;;;;;5061433;28;20295;-81
2022/01/02 06:59:30;;;;;;;21.03;11.07;;;;;;;;;;5061566;28;20246;-81
2022/01/02 07:01:57;;;;;;;17.27;10.67;;;;;;;;;;5060918;28;20236;-81
2022/01/02 07:04:24;;;;;;;13.80;10.63;;;;;;;;;;5061812;28;20247;-82
2022/01/02 07:06:51;;;;;;;15.13;9.70;;;;;;;;;;5063486;28;20207;-81
2022/01/02 07:09:20;;;;;;;13.87;10.87;;;;;;;;;;5062531;28;20244;-82
2022/01/02 07:11:47;;;;;;;15.60;10.33;;;;;;;;;;5061854;28;20589;-82
2022/01/02 07:14:14;;;;;;;18.33;11.00;;;;;;;;;;5062026;28;20287;-82
2022/01/02 07:16:41;;;;;;;16.30;10.70;;;;;;;;;;5059690;28;20621;-82
2022/01/02 07:19:08;;;;;;;14.40;9.77;;;;;;;;;;5060595;28;20240;-81
2022/01/02 07:21:35;;;;;;;14.90;10.00;;;;;;;;;;5062468;28;20608;-83
2022/01/02 07:24:02;;;;;;;14.17;10.00;;;;;;;;;;5064326;28;20241;-82
2022/01/02 07:26:30;;;;;;;19.33;11.20;;;;;;;;;;5063811;28;20635;-83
2022/01/02 07:28:57;;;;;;;14.20;10.63;;;;;;;;;;5049336;28;20237;-83
2022/01/02 07:31:24;;;;;;;16.30;10.73;;;;;;;;;;5041891;28;20236;-81
2022/01/02 07:33:51;;;;;;;19.57;10.47;;;;;;;;;;5041276;28;20244;-82
2022/01/02 07:36:18;;;;;;;20.13;11.53;;;;;;;;;;5043799;28;20198;-82
2022/01/02 07:38:45;;;;;;;16.17;10.90;;;;;;;;;;5048431;28;20750;-82
2022/01/02 07:41:12;;;;;;;17.80;10.73;;;;;;;;;;5044502;28;20222;-82
2022/01/02 07:43:41;;;;;;;16.70;10.27;;;;;;;;;;5053840;28;20245;-82
2022/01/02 07:46:08;;;;;;;21.83;11.10;;;;;;;;;;5048449;28;20689;-82
2022/01/02 07:48:35;;;;;;;17.47;10.93;;;;;;;;;;5048610;28;20233;-82
2022/01/02 07:51:02;;;;;;;19.50;10.40;;;;;;;;;;5036498;28;20316;-82
2022/01/02 07:53:29;;;;;;;18.63;10.87;;;;;;;;;;5049227;28;20387;-82
2022/01/02 07:55:56;;;;;;;16.87;10.60;;;;;;;;;;5051553;28;20198;-82
2022/01/02 07:58:23;;;;;;;19.10;12.07;;;;;;;;;;5051487;28;20287;-81
2022/01/02 08:00:52;;;;;;;19.40;11.43;;;;;;;;;;5046304;28;20217;-82
2022/01/02 08:03:19;;;;;;;18.07;10.70;;;;;;;;;;5051019;28;20237;-82
2022/01/02 08:05:46;;;;;;;18.53;11.00;;;;;;;;;;5051848;28;20205;-82
2022/01/02 08:08:13;;;;;;;18.63;11.40;;;;;;;;;;5052067;28;20232;-82
2022/01/02 08:10:40;;;;;;;19.23;11.50;;;;;;;;;;5051233;28;20223;-83
2022/01/02 08:13:07;;;;;;;19.97;11.97;;;;;;;;;;5042830;28;20233;-82
2022/01/02 08:15:34;;;;;;;17.77;11.57;;;;;;;;;;5045857;28;20205;-82
2022/01/02 08:18:03;;;;;;;17.33;11.27;;;;;;;;;;5047897;28;20238;-82
2022/01/02 08:20:30;;;;;;;18.80;11.80;;;;;;;;;;5051100;28;20212;-82
2022/01/02 08:22:57;;;;;;;19.00;12.63;;;;;;;;;;5047144;28;20222;-82
2022/01/02 08:25:25;;;;;;;22.47;11.83;;;;;;;;;;5044925;28;20205;-82
2022/01/02 08:27:52;;;;;;;24.30;11.40;;;;;;;;;;5046107;28;20709;-82
2022/01/02 08:30:19;;;;;;;20.67;11.70;;;;;;;;;;5048624;28;20251;-82
2022/01/02 08:32:46;;;;;;;19.03;11.20;;;;;;;;;;5046979;28;20213;-82
2022/01/02 08:35:14;;;;;;;16.17;12.07;;;;;;;;;;5047651;28;20201;-82
2022/01/02 08:37:41;;;;;;;18.47;11.43;;;;;;;;;;5053238;28;20264;-82
2022/01/02 08:40:09;;;;;;;17.73;11.87;;;;;;;;;;5045716;28;20205;-82
2022/01/02 08:42:36;;;;;;;18.17;12.20;;;;;;;;;;5044465;28;20241;-82
2022/01/02 08:45:03;;;;;;;15.47;11.07;;;;;;;;;;5048576;28;20303;-82
2022/01/02 08:47:30;;;;;;;16.10;11.80;;;;;;;;;;5047214;28;20264;-82
2022/01/02 08:49:57;;;;;;;19.10;12.57;;;;;;;;;;5046143;28;20252;-82
2022/01/02 08:52:26;;;;;;;19.07;12.27;;;;;;;;;;5049069;28;20256;-82
2022/01/02 08:54:53;;;;;;;22.50;13.27;;;;;;;;;;5050579;28;20238;-82
2022/01/02 08:57:20;;;;;;;20.73;12.23;;;;;;;;;;5051160;28;20206;-82
2022/01/02 08:59:47;;;;;;;22.43;12.53;;;;;;;;;;5052136;28;20222;-82
2022/01/02 09:02:14;;;;;;;21.23;12.80;;;;;;;;;;5051484;28;20228;-82
2022/01/02 09:04:41;;;;;;;19.93;12.60;;;;;;;;;;5046625;28;20233;-82
2022/01/02 09:07:08;;;;;;;20.13;12.63;;;;;;;;;;5046586;28;20206;-82
2022/01/02 09:09:36;;;;;;;17.43;12.23;;;;;;;;;;5045826;28;20237;-82
2022/01/02 09:12:04;;;;;;;19.33;13.10;;;;;;;;;;5046612;28;20226;-82
2022/01/02 09:14:31;;;;;;;20.33;12.67;;;;;;;;;;5045133;28;20240;-82
2022/01/02 09:16:58;;;;;;;19.17;12.83;;;;;;;;;;5047295;28;20288;-82
2022/01/02 09:19:25;;;;;;;18.80;12.47;;;;;;;;;;5039271;28;20237;-82
2022/01/02 09:21:52;;;;;;;19.47;11.83;;;;;;;;;;5039518;28;20709;-83
2022/01/02 09:24:20;;;;;;;21.37;14.27;;;;;;;;;;5046520;28;20287;-82
2022/01/02 09:26:48;;;;;;;24.13;14.13;;;;;;;;;;5035962;28;20213;-83
2022/01/02 09:29:15;;;;;;;20.13;14.37;;;;;;;;;;5035863;28;20288;-83
2022/01/02 09:31:42;;;;;;;28.80;17.00;;;;;;;;;;5035561;28;20257;-82
2022/01/02 09:34:09;;;;;;;31.73;19.53;;;;;;;;;;5035554;28;20230;-82
2022/01/02 09:36:37;;;;;;;38.07;21.23;;;;;;;;;;5038116;28;20252;-82
2022/01/02 09:39:04;;;;;;;35.83;20.10;;;;;;;;;;5044096;28;20226;-82
2022/01/02 09:41:31;;;;;;;28.67;16.93;;;;;;;;;;5050885;28;20638;-82
2022/01/02 09:44:00;;;;;;;25.73;15.83;;;;;;;;;;5039480;28;20246;-82
2022/01/02 09:46:29;;;;;;;34.23;16.83;;;;;;;;;;5074958;28;20305;-82
2022/01/02 09:48:56;;;;;;;30.83;16.80;;;;;;;;;;5074118;28;20236;-82
2022/01/02 09:51:24;;;;;;;26.27;15.97;;;;;;;;;;5074474;28;20258;-82
2022/01/02 09:53:52;;;;;;;23.77;15.13;;;;;;;;;;5071256;28;20705;-82
2022/01/02 09:56:19;;;;;;;27.07;15.00;;;;;;;;;;5057254;28;20252;-82
2022/01/02 09:58:46;;;;;;;29.93;15.73;;;;;;;;;;5105334;22;20688;-85
2022/01/02 10:01:17;;;;;;;27.93;17.00;;;;;;;;;;5102301;28;20227;-88
2022/01/02 10:03:45;;;;;;;26.63;15.63;;;;;;;;;;5086391;28;20232;-85
2022/01/02 10:06:12;;;;;;;26.80;15.67;;;;;;;;;;5091232;28;20194;-86
2022/01/02 10:08:39;;;;;;;23.87;15.63;;;;;;;;;;5096763;28;20221;-86
2022/01/02 10:11:09;;;;;;;27.60;16.00;;;;;;;;;;5097439;28;20189;-91
2022/01/02 10:13:37;;;;;;;26.33;16.10;;;;;;;;;;5093622;28;20239;-85
2022/01/02 10:16:04;;;;;;;29.40;15.77;;;;;;;;;;5084886;28;20216;-87
2022/01/02 10:18:34;;;;;;;25.70;15.70;;;;;;;;;;5083057;28;20268;-85
2022/01/02 10:21:01;;;;;;;30.03;17.23;;;;;;;;;;5082947;28;20209;-85
2022/01/02 10:23:29;;;;;;;32.60;18.67;;;;;;;;;;5082256;28;20240;-86
2022/01/02 10:25:57;;;;;;;35.23;19.93;;;;;;;;;;5083279;28;20208;-85
2022/01/02 10:28:32;;;;;;;33.93;18.30;;;;;;;;;;5082613;28;20247;-87
2022/01/02 10:31:01;;;;;;;31.87;15.77;;;;;;;;;;5081392;28;20224;-85
2022/01/02 10:33:29;;;;;;;29.53;15.43;;;;;;;;;;5084414;28;20225;-84
2022/01/02 10:36:04;;;;;;;32.03;16.17;;;;;;;;;;5077479;28;20213;-85
2022/01/02 10:38:32;;;;;;;33.83;17.33;;;;;;;;;;5074305;28;20704;-85
2022/01/02 10:40:59;;;;;;;37.13;18.33;;;;;;;;;;5074814;28;20217;-85
2022/01/02 10:43:29;;;;;;;34.60;17.43;;;;;;;;;;5074192;28;20240;-85
2022/01/02 10:45:57;;;;;;;36.43;17.57;;;;;;;;;;5076389;28;20205;-84
2022/01/02 10:48:31;;;;;;;42.30;20.93;;;;;;;;;;5074539;28;20244;-85
2022/01/02 10:51:04;;;;;;;50.40;23.50;;;;;;;;;;5074040;28;20661;-84
2022/01/02 10:53:31;;;;;;;44.90;20.53;;;;;;;;;;5078919;28;20708;-84
2022/01/02 10:55:59;;;;;;;35.53;17.00;;;;;;;;;;5078901;28;20251;-83
2022/01/02 10:58:27;;;;;;;32.43;17.20;;;;;;;;;;5075938;28;20234;-83
2022/01/02 11:00:57;;;;;;;32.97;18.17;;;;;;;;;;5062635;28;20202;-84
2022/01/02 11:03:25;;;;;;;32.73;18.83;;;;;;;;;;5078273;28;20231;-84
2022/01/02 11:05:56;;;;;;;44.83;25.17;;;;;;;;;;5098101;28;20212;-85
2022/01/02 11:08:27;;;;;;;27.63;15.60;;;;;;;;;;5081039;28;20320;-85
2022/01/02 11:10:56;;;;;;;32.07;15.20;;;;;;;;;;5078429;28;20206;-84
2022/01/02 11:13:23;;;;;;;27.77;15.93;;;;;;;;;;5077609;28;20233;-84
2022/01/02 11:15:50;;;;;;;29.17;19.10;;;;;;;;;;5071962;28;20202;-84
2022/01/02 11:18:17;;;;;;;31.87;19.73;;;;;;;;;;5087827;28;20232;-84
2022/01/02 11:20:45;;;;;;;30.60;19.80;;;;;;;;;;5097189;28;20684;-84
2022/01/02 11:23:14;;;;;;;21.43;14.33;;;;;;;;;;5096978;28;20229;-84
2022/01/02 11:25:46;;;;;;;22.60;13.63;;;;;;;;;;5098488;28;20224;-84
2022/01/02 11:28:20;;;;;;;25.73;14.80;;;;;;;;;;5100058;28;20244;-84
2022/01/02 11:30:50;;;;;;;28.53;14.83;;;;;;;;;;5101505;28;20212;-84
2022/01/02 11:33:19;;;;;;;26.87;18.70;;;;;;;;;;5103136;28;20700;-84
2022/01/02 11:35:48;;;;;;;29.27;18.67;;;;;;;;;;5102335;28;20239;-85
2022/01/02 11:38:17;;;;;;;36.27;21.23;;;;;;;;;;5093161;28;20770;-84
2022/01/02 11:41:00;;;;;;;36.83;22.80;;;;;;;;;;5078549;28;20259;-83
2022/01/02 11:43:48;;;;;;;38.00;24.00;;;;;;;;;;5078706;28;20251;-85
2022/01/02 11:46:17;;;;;;;34.63;21.60;;;;;;;;;;5077111;28;20702;-85
2022/01/02 11:49:01;;;;;;;33.33;20.43;;;;;;;;;;5076558;28;20245;-85
2022/01/02 11:51:43;;;;;;;30.50;20.33;;;;;;;;;;5076665;28;20202;-84
2022/01/02 11:54:31;;;;;;;37.33;21.27;;;;;;;;;;5076222;28;20285;-85
2022/01/02 11:56:59;;;;;;;32.23;20.60;;;;;;;;;;5079274;28;20209;-85
2022/01/02 11:59:42;;;;;;;40.40;23.67;;;;;;;;;;5077160;28;20291;-84
2022/01/02 12:02:10;;;;;;;49.63;30.50;;;;;;;;;;5078622;28;20201;-84
2022/01/02 12:04:52;;;;;;;37.93;22.77;;;;;;;;;;5076545;28;20787;-85
2022/01/02 12:07:34;;;;;;;31.63;20.53;;;;;;;;;;5076790;28;20554;-85
2022/01/02 12:10:16;;;;;;;39.23;21.57;;;;;;;;;;5076277;28;20232;-84
2022/01/02 12:12:58;;;;;;;12.03;9.23;;;;;;;;;;5079807;28;20209;-84
2022/01/02 12:15:25;;;;;;;9.27;7.50;;;;;;;;;;5082132;28;20210;-84
2022/01/02 12:18:11;;;;;;;6.47;4.47;;;;;;;;;;5081287;28;20225;-84
2022/01/02 12:20:56;;;;;;;5.90;4.23;;;;;;;;;;5078048;28;20193;-85
2022/01/02 12:23:41;;;;;;;5.23;3.30;;;;;;;;;;5079756;28;20236;-84
2022/01/02 12:26:10;;;;;;;3.53;3.10;;;;;;;;;;5079809;28;20661;-85
2022/01/02 12:28:38;;;;;;;4.57;4.10;;;;;;;;;;5078850;28;20248;-83
2022/01/02 12:31:06;;;;;;;4.77;3.70;;;;;;;;;;5078958;28;20209;-83
2022/01/02 12:33:35;;;;;;;2.63;2.43;;;;;;;;;;5080087;28;20240;-83
2022/01/02 12:36:09;;;;;;;3.63;2.60;;;;;;;;;;5080555;28;20209;-85
2022/01/02 12:38:46;;;;;;;3.50;3.20;;;;;;;;;;5076383;28;20241;-85
2022/01/02 12:41:14;;;;;;;3.43;3.10;;;;;;;;;;5076010;28;20228;-85
2022/01/02 12:43:41;;;;;;;3.20;3.00;;;;;;;;;;5077171;28;20229;-85
2022/01/02 12:46:11;;;;;;;3.20;2.90;;;;;;;;;;5078663;28;20205;-85
2022/01/02 12:48:39;;;;;;;3.43;3.13;;;;;;;;;;5077444;28;20298;-85
2022/01/02 12:51:09;;;;;;;3.87;3.10;;;;;;;;;;5076927;28;20216;-84
2022/01/02 12:53:36;;;;;;;4.60;3.13;;;;;;;;;;5076410;28;20293;-87
2022/01/02 12:56:04;;;;;;;3.23;2.93;;;;;;;;;;5076529;28;20193;-85
2022/01/02 12:58:33;;;;;;;2.87;2.57;;;;;;;;;;5075673;28;20260;-85
2022/01/02 13:01:03;;;;;;;6.47;3.50;;;;;;;;;;5072825;28;20234;-84
2022/01/02 13:03:30;;;;;;;4.50;4.10;;;;;;;;;;5055548;28;20237;-84
2022/01/02 13:06:00;;;;;;;4.13;2.90;;;;;;;;;;5056371;28;20573;-84
2022/01/02 13:08:27;;;;;;;4.07;2.83;;;;;;;;;;5066206;28;20233;-85
2022/01/02 13:10:55;;;;;;;3.80;3.37;;;;;;;;;;5076777;28;20208;-83
2022/01/02 13:13:28;;;;;;;3.30;2.97;;;;;;;;;;5079184;28;20236;-83
2022/01/02 13:15:57;;;;;;;4.33;3.03;;;;;;;;;;5081911;28;20205;-86
2022/01/02 13:18:24;;;;;;;3.27;3.00;;;;;;;;;;5084938;28;20241;-83
2022/01/02 13:20:51;;;;;;;3.80;3.30;;;;;;;;;;5079616;28;20212;-83
2022/01/02 13:23:22;;;;;;;3.77;3.17;;;;;;;;;;5078454;28;20236;-84
2022/01/02 13:25:49;;;;;;;3.40;2.97;;;;;;;;;;5080418;28;20221;-84
2022/01/02 13:28:17;;;;;;;4.70;3.13;;;;;;;;;;5079584;28;20232;-84
2022/01/02 13:30:49;;;;;;;3.10;2.80;;;;;;;;;;5080310;28;20232;-86
2022/01/02 13:33:17;;;;;;;3.20;2.90;;;;;;;;;;5080908;28;20229;-83
2022/01/02 13:35:44;;;;;;;4.63;3.23;;;;;;;;;;5066190;28;20217;-83
2022/01/02 13:38:12;;;;;;;4.80;3.17;;;;;;;;;;5075694;28;20241;-83
2022/01/02 13:40:41;;;;;;;3.00;2.70;;;;;;;;;;5059034;28;20206;-84
2022/01/02 13:43:10;;;;;;;3.13;2.80;;;;;;;;;;5067825;28;20229;-83
2022/01/02 13:45:39;;;;;;;3.60;3.30;;;;;;;;;;5078954;28;20227;-84
2022/01/02 13:48:11;;;;;;;3.60;2.90;;;;;;;;;;5081173;28;20282;-85
2022/01/02 13:50:39;;;;;;;4.30;3.47;;;;;;;;;;5078835;28;20723;-83
2022/01/02 13:53:07;;;;;;;4.13;2.97;;;;;;;;;;5077494;28;20225;-83
2022/01/02 13:55:35;;;;;;;4.00;2.77;;;;;;;;;;5079581;28;20588;-85
2022/01/02 13:58:15;;;;;;;3.20;2.93;;;;;;;;;;5065715;28;20237;-87
2022/01/02 14:00:45;;;;;;;3.07;2.77;;;;;;;;;;5071891;28;20189;-82
2022/01/02 14:03:25;;;;;;;5.03;3.53;;;;;;;;;;5074850;28;20229;-84
2022/01/02 14:05:52;;;;;;;4.57;2.97;;;;;;;;;;5078821;28;20224;-85
2022/01/02 14:08:20;;;;;;;2.80;2.60;;;;;;;;;;5070398;28;20241;-85
2022/01/02 14:10:47;;;;;;;4.73;3.87;;;;;;;;;;5069768;28;20209;-84
2022/01/02 14:13:17;;;;;;;3.93;3.50;;;;;;;;;;5084921;28;20237;-86
2022/01/02 14:15:46;;;;;;;4.47;3.77;;;;;;;;;;5075267;28;20214;-84
2022/01/02 14:18:13;;;;;;;2.93;2.60;;;;;;;;;;5072949;28;20244;-84
2022/01/02 14:20:40;;;;;;;3.33;3.03;;;;;;;;;;5073192;28;20209;-84
2022/01/02 14:23:07;;;;;;;4.93;3.37;;;;;;;;;;5074283;28;20232;-85
2022/01/02 14:25:34;;;;;;;4.27;3.87;;;;;;;;;;5073616;28;20695;-84
2022/01/02 14:28:02;;;;;;;5.73;3.47;;;;;;;;;;5073688;28;20245;-83
2022/01/02 14:30:31;;;;;;;3.73;3.20;;;;;;;;;;5090088;28;20216;-82
2022/01/02 14:32:58;;;;;;;5.13;3.80;;;;;;;;;;5078788;28;20238;-85
2022/01/02 14:35:25;;;;;;;5.97;2.97;;;;;;;;;;5075077;28;20211;-84
2022/01/02 14:37:52;;;;;;;4.93;3.10;;;;;;;;;;5073237;28;20236;-84